createdAt,value
2018-11-25T00:02:29.608Z,66.57
2018-11-25T00:05:01.803Z,70.67
2018-11-25T00:07:34.853Z,68.23
2018-11-25T00:10:06.930Z,66.90
2018-11-25T00:12:39.107Z,64.33
2018-11-25T00:15:12.411Z,61.03
2018-11-25T00:17:44.707Z,67.67
2018-11-25T00:20:17.373Z,64.73
2018-11-25T00:22:49.684Z,69.93
2018-11-25T00:25:21.940Z,72.43
2018-11-25T00:27:54.219Z,70.00
2018-11-25T00:30:26.500Z,66.10
2018-11-25T00:32:58.754Z,66.50
2018-11-25T00:35:30.999Z,66.97
2018-11-25T00:38:03.265Z,70.33
2018-11-25T00:40:35.537Z,76.90
2018-11-25T00:43:08.158Z,77.87
2018-11-25T00:45:40.417Z,76.13
2018-11-25T00:48:12.617Z,82.47
2018-11-25T00:50:44.869Z,73.97
2018-11-25T00:53:17.167Z,70.33
2018-11-25T00:55:49.491Z,79.30
2018-11-25T00:58:21.759Z,66.93
2018-11-25T01:00:54.077Z,66.87
2018-11-25T01:03:26.380Z,68.03
2018-11-25T01:05:58.697Z,73.70
2018-11-25T01:08:30.967Z,71.50
2018-11-25T01:11:03.072Z,72.97
2018-11-25T01:13:35.417Z,70.93
2018-11-25T01:16:07.779Z,77.53
2018-11-25T01:18:40.038Z,71.87
2018-11-25T01:21:12.322Z,77.53
2018-11-25T01:23:44.563Z,77.60
2018-11-25T01:26:16.871Z,70.50
2018-11-25T01:28:49.069Z,72.67
2018-11-25T01:31:21.333Z,74.27
2018-11-25T01:33:53.540Z,68.30
2018-11-25T01:36:25.768Z,70.23
2018-11-25T01:38:57.982Z,74.40
2018-11-25T01:41:30.256Z,74.90
2018-11-25T01:44:02.426Z,71.37
2018-11-25T01:46:34.595Z,77.13
2018-11-25T01:49:06.764Z,66.30
2018-11-25T01:51:39.012Z,69.83
2018-11-25T01:54:11.216Z,74.10
2018-11-25T01:56:43.513Z,73.70
2018-11-25T01:59:15.733Z,81.33
2018-11-25T02:01:47.961Z,91.83
2018-11-25T02:04:20.209Z,70.47
2018-11-25T02:06:52.419Z,83.33
2018-11-25T02:09:24.836Z,71.73
2018-11-25T02:11:57.057Z,82.73
2018-11-25T02:14:29.403Z,82.80
2018-11-25T02:17:01.664Z,72.30
2018-11-25T02:19:33.916Z,84.93
2018-11-25T02:22:06.173Z,82.57
2018-11-25T02:24:38.464Z,79.83
2018-11-25T02:27:10.762Z,77.13
2018-11-25T02:29:43.083Z,90.60
2018-11-25T02:32:15.345Z,84.67
2018-11-25T02:34:47.660Z,84.93
2018-11-25T02:37:19.887Z,93.30
2018-11-25T02:39:56.007Z,92.00
2018-11-25T02:42:28.342Z,82.80
2018-11-25T02:45:00.701Z,87.27
2018-11-25T02:47:32.913Z,91.07
2018-11-25T02:50:05.287Z,92.77
2018-11-25T02:52:37.528Z,97.50
2018-11-25T02:55:09.929Z,94.00
2018-11-25T02:57:42.193Z,90.37
2018-11-25T03:00:14.512Z,96.33
2018-11-25T03:02:46.698Z,85.20
2018-11-25T03:05:19.053Z,95.77
2018-11-25T03:07:51.479Z,86.20
2018-11-25T03:10:23.814Z,93.53
2018-11-25T03:12:56.121Z,95.20
2018-11-25T03:15:28.423Z,84.77
2018-11-25T03:18:00.696Z,92.37
2018-11-25T03:20:32.958Z,89.60
2018-11-25T03:23:05.223Z,87.30
2018-11-25T03:25:37.552Z,83.17
2018-11-25T03:28:10.164Z,84.07
2018-11-25T03:30:42.551Z,92.80
2018-11-25T03:33:14.777Z,91.50
2018-11-25T03:35:47.198Z,81.37
2018-11-25T03:38:19.498Z,80.90
2018-11-25T03:40:51.813Z,86.43
2018-11-25T03:43:24.064Z,86.03
2018-11-25T03:45:56.383Z,85.93
2018-11-25T03:48:28.596Z,93.53
2018-11-25T03:51:00.929Z,88.83
2018-11-25T03:53:33.194Z,75.83
2018-11-25T03:56:05.486Z,91.00
2018-11-25T03:58:37.721Z,85.63
2018-11-25T04:01:10.202Z,89.33
2018-11-25T04:03:42.419Z,87.63
2018-11-25T04:06:14.748Z,85.23
2018-11-25T04:08:47.063Z,86.83
2018-11-25T04:11:19.375Z,93.27
2018-11-25T04:13:51.596Z,85.17
2018-11-25T04:16:23.976Z,84.17
2018-11-25T04:18:56.209Z,86.70
2018-11-25T04:21:28.491Z,78.73
2018-11-25T04:24:00.720Z,88.33
2018-11-25T04:26:33.073Z,84.00
2018-11-25T04:29:05.372Z,89.53
2018-11-25T04:31:37.648Z,89.20
2018-11-25T04:34:09.849Z,81.77
2018-11-25T04:36:42.129Z,92.53
2018-11-25T04:39:14.362Z,83.07
2018-11-25T04:45:58.989Z,78.07
2018-11-25T04:48:51.015Z,84.77
2018-11-25T04:51:43.601Z,86.83
2018-11-25T04:54:53.220Z,88.00
2018-11-25T04:58:03.695Z,86.17
2018-11-25T05:01:13.451Z,77.83
2018-11-25T05:04:04.733Z,83.20
2018-11-25T05:06:56.986Z,78.80
2018-11-25T05:09:47.967Z,90.70
2018-11-25T05:12:39.443Z,84.73
2018-11-25T05:15:31.440Z,84.83
2018-11-25T05:18:22.688Z,87.93
2018-11-25T05:21:13.516Z,83.53
2018-11-25T05:24:04.477Z,76.90
2018-11-25T05:26:55.806Z,80.63
2018-11-25T05:30:05.611Z,88.27
2018-11-25T05:32:56.969Z,82.87
2018-11-25T05:38:58.286Z,87.50
2018-11-25T05:41:51.106Z,80.53
2018-11-25T05:44:42.116Z,86.70
2018-11-25T05:50:29.251Z,81.07
2018-11-25T05:53:20.226Z,87.20
2018-11-25T05:56:13.193Z,85.00
2018-11-25T05:59:04.186Z,88.23
2018-11-25T06:01:55.365Z,87.77
2018-11-25T06:04:47.845Z,93.77
2018-11-25T06:07:58.612Z,95.43
2018-11-25T06:10:49.943Z,103.80
2018-11-25T06:13:41.880Z,90.67
2018-11-25T06:16:34.354Z,85.27
2018-11-25T06:19:25.319Z,84.17
2018-11-25T06:22:16.485Z,85.87
2018-11-25T06:25:09.385Z,97.70
2018-11-25T06:28:00.372Z,86.07
2018-11-25T06:30:51.871Z,92.10
2018-11-25T06:36:40.497Z,84.60
2018-11-25T06:39:50.221Z,79.37
2018-11-25T06:45:38.233Z,77.30
2018-11-25T06:48:54.843Z,83.40
2018-11-25T06:51:40.540Z,77.20
2018-11-25T07:00:52.983Z,85.97
2018-11-25T07:04:04.409Z,85.07
2018-11-25T07:07:14.168Z,84.60
2018-11-25T07:10:05.808Z,92.60
2018-11-25T07:13:15.488Z,79.10
2018-11-25T07:16:08.306Z,85.83
2018-11-25T07:18:59.367Z,84.03
2018-11-25T07:21:50.331Z,83.60
2018-11-25T07:24:41.385Z,83.40
2018-11-25T07:27:32.361Z,83.27
2018-11-25T07:30:42.822Z,85.03
2018-11-25T07:36:29.758Z,89.93
2018-11-25T07:39:21.802Z,90.57
2018-11-25T07:42:12.782Z,88.27
2018-11-25T07:45:04.199Z,87.83
2018-11-25T07:50:52.825Z,91.63
2018-11-25T07:54:02.829Z,80.10
2018-11-25T07:56:55.346Z,85.27
2018-11-25T08:00:04.657Z,91.50
2018-11-25T08:02:55.701Z,86.83
2018-11-25T08:05:47.145Z,88.57
2018-11-25T08:08:39.553Z,78.67
2018-11-25T08:11:49.226Z,81.20
2018-11-25T08:14:40.711Z,88.43
2018-11-25T08:17:32.690Z,82.33
2018-11-25T08:20:24.692Z,75.73
2018-11-25T08:23:15.796Z,79.13
2018-11-25T08:26:07.825Z,79.13
2018-11-25T08:29:18.607Z,82.80
2018-11-25T08:32:27.934Z,71.20
2018-11-25T08:35:19.539Z,86.13
2018-11-25T08:38:29.339Z,79.47
2018-11-25T08:41:21.978Z,79.00
2018-11-25T08:44:31.667Z,73.37
2018-11-25T08:47:41.266Z,69.57
2018-11-25T08:50:32.413Z,74.30
2018-11-25T08:53:23.823Z,69.50
2018-11-25T08:56:36.131Z,72.80
2018-11-25T08:59:28.273Z,78.17
2018-11-25T09:02:19.278Z,70.23
2018-11-25T09:05:16.505Z,71.63
2018-11-25T09:08:07.656Z,78.90
2018-11-25T09:10:59.435Z,69.10
2018-11-25T09:13:44.544Z,77.43
2018-11-25T09:16:37.676Z,82.30
2018-11-25T09:19:28.452Z,81.33
2018-11-25T09:22:20.448Z,77.37
2018-11-25T09:25:31.476Z,80.60
2018-11-25T09:28:41.152Z,78.57
2018-11-25T09:31:51.530Z,79.73
2018-11-25T09:34:42.852Z,81.17
2018-11-25T09:37:34.461Z,76.10
2018-11-25T09:40:26.645Z,80.10
2018-11-25T09:43:18.431Z,80.00
2018-11-25T09:46:10.003Z,73.93
2018-11-25T09:52:10.672Z,67.90
2018-11-25T09:55:01.810Z,70.03
2018-11-25T09:58:11.569Z,73.90
2018-11-25T10:01:03.200Z,76.10
2018-11-25T10:03:54.431Z,76.57
2018-11-25T10:06:45.751Z,71.30
2018-11-25T10:09:37.270Z,75.37
2018-11-25T10:12:28.246Z,77.47
2018-11-25T10:15:20.837Z,71.27
2018-11-25T10:18:30.856Z,78.23
2018-11-25T10:21:22.981Z,79.83
2018-11-25T10:24:32.656Z,78.87
2018-11-25T10:27:24.036Z,80.07
2018-11-25T10:30:20.535Z,80.97
2018-11-25T10:33:12.009Z,76.43
2018-11-25T10:36:04.581Z,81.90
2018-11-25T10:39:12.863Z,82.27
2018-11-25T10:42:04.020Z,94.23
2018-11-25T10:44:57.449Z,90.30
2018-11-25T10:47:48.975Z,91.80
2018-11-25T10:50:42.285Z,81.93
2018-11-25T10:53:33.276Z,96.33
2018-11-25T10:56:24.268Z,88.20
2018-11-25T10:59:15.213Z,90.60
2018-11-25T11:02:44.028Z,90.53
2018-11-25T11:06:12.641Z,96.47
2018-11-25T11:09:04.795Z,94.13
2018-11-25T11:11:57.615Z,92.40
2018-11-25T11:14:51.183Z,86.50
2018-11-25T11:17:42.212Z,87.97
2018-11-25T11:20:33.767Z,84.40
2018-11-25T11:23:28.036Z,88.47
2018-11-25T11:26:30.257Z,80.40
2018-11-25T11:29:21.600Z,86.53
2018-11-25T11:32:12.735Z,85.43
2018-11-25T11:35:03.695Z,90.93
2018-11-25T11:38:13.414Z,88.27
2018-11-25T11:44:14.932Z,78.73
2018-11-25T11:47:05.896Z,74.40
2018-11-25T11:49:57.659Z,77.80
2018-11-25T11:52:49.297Z,72.63
2018-11-25T11:55:40.753Z,68.77
2018-11-25T11:58:31.933Z,82.40
2018-11-25T12:01:41.616Z,78.80
2018-11-25T12:08:01.345Z,76.60
2018-11-25T12:10:52.394Z,76.73
2018-11-25T12:13:44.573Z,74.33
2018-11-25T12:16:36.875Z,81.13
2018-11-25T12:19:29.282Z,76.13
2018-11-25T12:22:20.231Z,77.67
2018-11-25T12:25:31.078Z,76.67
2018-11-25T12:28:41.067Z,76.83
2018-11-25T12:31:33.049Z,76.77
2018-11-25T12:34:23.967Z,75.43
2018-11-25T12:37:15.203Z,74.30
2018-11-25T12:40:08.201Z,77.37
2018-11-25T12:43:00.147Z,79.60
2018-11-25T12:45:51.637Z,73.80
2018-11-25T12:48:42.802Z,74.67
2018-11-25T12:51:53.031Z,88.33
2018-11-25T12:54:44.001Z,79.77
2018-11-25T12:57:34.937Z,83.03
2018-11-25T13:00:36.179Z,83.77
2018-11-25T13:03:28.703Z,86.07
2018-11-25T13:06:20.666Z,79.37
2018-11-25T13:09:12.164Z,82.17
2018-11-25T13:12:03.788Z,79.87
2018-11-25T13:14:55.591Z,81.17
2018-11-25T13:17:46.949Z,84.77
2018-11-25T13:20:38.343Z,85.60
2018-11-25T13:23:29.947Z,81.90
2018-11-25T13:26:21.570Z,87.70
2018-11-25T13:29:12.557Z,79.73
2018-11-25T13:32:04.033Z,91.20
2018-11-25T13:34:56.118Z,80.77
2018-11-25T13:37:48.004Z,83.63
2018-11-25T13:40:38.975Z,86.40
2018-11-25T13:43:31.516Z,78.30
2018-11-25T13:46:22.550Z,67.27
2018-11-25T13:49:13.829Z,75.97
2018-11-25T13:52:05.231Z,85.93
2018-11-25T13:54:56.323Z,84.17
2018-11-25T13:57:47.508Z,80.43
2018-11-25T14:00:58.076Z,85.90
2018-11-25T14:04:10.202Z,76.53
2018-11-25T14:07:01.134Z,74.50
2018-11-25T14:13:03.216Z,71.20
2018-11-25T14:15:54.866Z,66.30
2018-11-25T14:18:46.311Z,61.87
2018-11-25T14:21:37.768Z,68.40
2018-11-25T14:27:38.528Z,66.90
2018-11-25T14:30:30.897Z,68.07
2018-11-25T14:33:41.366Z,64.73
2018-11-25T14:36:32.899Z,67.53
2018-11-25T14:39:25.217Z,66.73
2018-11-25T14:42:17.278Z,64.57
2018-11-25T14:46:03.298Z,70.93
2018-11-25T14:51:52.772Z,61.60
2018-11-25T14:55:18.864Z,62.57
2018-11-25T15:00:55.356Z,61.03
2018-11-25T15:04:06.434Z,67.03
2018-11-25T15:07:18.066Z,61.20
2018-11-25T15:16:58.262Z,54.13
2018-11-25T15:19:50.765Z,59.70
2018-11-25T15:22:43.110Z,60.33
2018-11-25T15:25:37.335Z,56.13
2018-11-25T15:31:26.992Z,53.23
2018-11-25T15:34:38.025Z,55.97
2018-11-25T15:37:49.534Z,52.67
2018-11-25T15:41:00.876Z,55.90
2018-11-25T15:44:12.179Z,52.07
2018-11-25T15:47:37.674Z,52.20
2018-11-25T15:50:37.616Z,51.03
2018-11-25T15:53:48.838Z,52.87
2018-11-25T15:57:00.675Z,47.50
2018-11-25T15:59:52.504Z,52.43
2018-11-25T16:02:44.905Z,46.63
2018-11-25T16:05:36.901Z,43.60
2018-11-25T16:08:49.751Z,45.13
2018-11-25T16:12:00.557Z,49.30
2018-11-25T16:15:11.284Z,45.00
2018-11-25T16:18:02.906Z,45.50
2018-11-25T16:21:15.834Z,50.60
2018-11-25T16:33:34.792Z,49.07
2018-11-25T16:36:26.522Z,49.20
2018-11-25T16:39:52.716Z,47.30
2018-11-25T16:42:31.308Z,48.43
2018-11-25T16:45:43.142Z,48.20
2018-11-25T17:00:59.115Z,51.10
2018-11-25T17:04:10.449Z,49.87
2018-11-25T17:07:02.125Z,52.00
2018-11-25T17:10:14.705Z,51.67
2018-11-25T17:13:26.154Z,52.83
2018-11-25T17:16:18.756Z,54.70
2018-11-25T17:19:11.808Z,52.97
2018-11-25T17:22:24.839Z,48.73
2018-11-25T17:25:17.138Z,49.63
2018-11-25T17:28:09.125Z,52.50
2018-11-25T17:31:00.875Z,51.73
2018-11-25T17:33:52.305Z,48.20
2018-11-25T17:36:44.632Z,49.57
2018-11-25T17:39:38.703Z,46.90
2018-11-25T17:42:31.773Z,46.70
2018-11-25T17:45:57.077Z,45.60
2018-11-25T17:48:36.433Z,49.60
2018-11-25T17:55:17.378Z,46.90
2018-11-25T18:01:09.318Z,44.40
2018-11-25T18:04:21.420Z,49.20
2018-11-25T18:07:34.277Z,47.17
2018-11-25T18:14:03.079Z,43.80
2018-11-25T18:20:08.552Z,48.67
2018-11-25T18:23:08.416Z,42.10
2018-11-25T18:26:19.466Z,45.00
2018-11-25T18:29:31.086Z,45.10
2018-11-25T18:32:41.782Z,42.33
2018-11-25T18:39:24.110Z,44.60
2018-11-25T18:42:15.845Z,44.27
2018-11-25T18:45:29.405Z,41.23
2018-11-25T18:51:32.907Z,40.57
2018-11-25T18:54:45.541Z,42.67
2018-11-25T18:57:55.371Z,41.40
2018-11-25T19:01:25.222Z,41.10
2018-11-25T19:04:17.606Z,39.93
2018-11-25T19:07:10.160Z,44.10
2018-11-25T19:10:16.737Z,39.07
2018-11-25T19:13:16.265Z,42.37
2018-11-25T19:19:18.095Z,35.53
2018-11-25T19:22:29.856Z,36.07
2018-11-25T19:28:34.373Z,35.50
2018-11-25T19:31:45.784Z,34.10
2018-11-25T19:34:39.040Z,37.83
2018-11-25T19:37:31.448Z,35.63
2018-11-25T19:40:41.475Z,36.17
2018-11-25T19:43:33.398Z,35.30
2018-11-25T19:46:25.404Z,33.10
2018-11-25T19:49:08.658Z,34.53
2018-11-25T19:52:00.927Z,37.70
2018-11-25T19:55:11.058Z,36.97
2018-11-25T19:58:03.215Z,37.07
2018-11-25T20:00:54.807Z,35.47
2018-11-25T20:03:47.434Z,38.07
2018-11-25T20:06:58.296Z,33.57
2018-11-25T20:10:02.064Z,34.90
2018-11-25T20:13:13.097Z,35.20
2018-11-25T20:16:31.420Z,35.17
2018-11-25T20:19:41.970Z,30.10
2018-11-25T20:22:53.148Z,32.47
2018-11-25T20:26:03.626Z,32.60
2018-11-25T20:28:55.611Z,29.13
2018-11-25T20:32:07.133Z,32.10
2018-11-25T20:34:58.740Z,30.97
2018-11-25T20:38:09.746Z,30.17
2018-11-25T20:44:51.431Z,30.17
2018-11-25T20:47:43.995Z,30.30
2018-11-25T20:54:12.491Z,36.43
2018-11-25T20:57:07.371Z,30.00
2018-11-25T21:00:42.296Z,28.23
2018-11-25T21:03:56.704Z,29.27
2018-11-25T21:07:11.994Z,30.40
2018-11-25T21:10:44.062Z,28.80
2018-11-25T21:13:55.530Z,29.80
2018-11-25T21:17:06.594Z,31.47
2018-11-25T21:23:35.264Z,30.20
2018-11-25T21:26:46.131Z,24.97
2018-11-25T21:29:38.895Z,30.27
2018-11-25T21:32:50.398Z,30.03
2018-11-25T21:36:00.972Z,26.40
2018-11-25T21:38:53.533Z,27.43
2018-11-25T21:42:04.346Z,31.73
2018-11-25T21:44:56.106Z,27.23
2018-11-25T21:51:39.201Z,33.30
2018-11-25T21:54:31.487Z,29.70
2018-11-25T21:57:42.258Z,29.20
2018-11-25T22:03:51.431Z,32.33
2018-11-25T22:06:43.902Z,29.57
2018-11-25T22:09:48.264Z,34.00
2018-11-25T22:12:28.391Z,32.03
2018-11-25T22:15:21.084Z,28.60
2018-11-25T22:18:32.609Z,32.43
2018-11-25T22:21:44.935Z,32.60
2018-11-25T22:24:43.497Z,33.13
2018-11-25T22:31:43.715Z,32.67
2018-11-25T22:34:35.347Z,32.90
2018-11-25T22:37:47.476Z,32.20
2018-11-25T22:40:39.033Z,32.93
2018-11-25T22:43:30.849Z,32.80
2018-11-25T22:46:41.739Z,33.57
2018-11-25T22:49:34.810Z,34.43
2018-11-25T22:55:26.373Z,35.70
2018-11-25T22:58:36.813Z,33.90
2018-11-25T23:01:29.502Z,30.70
2018-11-25T23:04:59.362Z,33.23
2018-11-25T23:07:50.990Z,37.07
2018-11-25T23:10:42.545Z,34.47
2018-11-25T23:13:34.197Z,33.27
2018-11-25T23:16:26.778Z,32.97
2018-11-25T23:19:38.215Z,33.40
2018-11-25T23:22:49.196Z,36.00
2018-11-25T23:25:41.365Z,39.03
2018-11-25T23:28:51.403Z,35.93
2018-11-25T23:34:54.991Z,35.37
2018-11-25T23:37:46.531Z,36.23
2018-11-25T23:40:39.438Z,36.27
2018-11-25T23:43:43.414Z,36.30
2018-11-25T23:46:23.713Z,36.73
2018-11-25T23:49:51.296Z,38.80
2018-11-25T23:52:29.205Z,38.10
2018-11-25T23:55:20.801Z,36.70
2018-11-25T23:58:12.384Z,37.57
